Time;durP1;ratioP1;P1;durP2;ratioP2;P2;SDS_P1;SDS_P2;PMS_P1;PMS_P2;Temp;Humidity;BMP_temperature;BMP_pressure;BME280_temperature;BME280_humidity;BME280_pressure;Samples;Min_cycle;Max_cycle;Signal;HPM_P1;HPM_P2
2022/02/01 00:01:57;;;;;;;40.08;15.10;;;;;;;0.45;64.23;96622.59;1707017;82;21098;-82
2022/02/01 00:04:34;;;;;;;38.48;15.70;;;;;;;0.43;64.40;96615.23;1716711;82;21457;-82
2022/02/01 00:07:06;;;;;;;42.40;15.50;;;;;;;0.43;64.48;96623.06;1708813;82;21011;-81
2022/02/01 00:09:36;;;;;;;34.48;14.78;;;;;;;0.44;64.64;96622.59;1711471;82;20994;-81
2022/02/01 00:12:14;;;;;;;37.78;15.53;;;;;;;0.38;64.71;96630.06;1708652;82;21048;-81
2022/02/01 00:15:11;;;;;;;42.23;15.58;;;;;;;0.35;64.98;96628.36;1711761;82;21522;-81
2022/02/01 00:33:22;;;;;;;44.20;18.42;;;;;;;0.41;65.37;96616.98;1704372;82;21117;-81
2022/02/01 00:35:42;;;;;;;56.10;22.65;;;;;;;0.41;65.38;96613.53;1707085;82;21451;-81
2022/02/01 00:38:19;;;;;;;56.83;23.62;;;;;;;0.42;65.46;96610.04;1742624;82;21044;-80
2022/02/01 00:40:39;;;;;;;61.65;23.40;;;;;;;0.40;65.66;96617.87;1742514;82;21036;-80
2022/02/01 00:43:07;;;;;;;57.13;23.00;;;;;;;0.36;65.78;96617.48;1744536;82;20992;-80
2022/02/01 00:45:34;;;;;;;56.88;23.15;;;;;;;0.36;65.81;96614.87;1744473;82;21028;-79
2022/02/01 00:48:02;;;;;;;57.38;23.35;;;;;;;0.38;65.80;96618.34;1736420;82;21438;-79
2022/02/01 00:50:28;;;;;;;56.58;23.15;;;;;;;0.37;65.86;96613.55;1719574;83;21045;-79
2022/02/01 00:52:54;;;;;;;49.08;20.08;;;;;;;0.41;65.82;96613.53;1719509;82;21030;-79
2022/02/01 00:55:21;;;;;;;52.73;21.65;;;;;;;0.36;66.20;96610.96;1719662;83;21011;-80
2022/02/01 00:57:50;;;;;;;38.98;14.43;;;;;;;0.36;66.20;96613.56;1742351;82;21051;-79
2022/02/01 01:00:17;;;;;;;40.55;16.10;;;;;;;0.36;66.25;96611.84;1744474;82;21048;-79
2022/02/01 01:02:43;;;;;;;31.90;10.38;;;;;;;0.36;66.07;96614.44;1725968;82;20995;-79
2022/02/01 01:05:10;;;;;;;29.98;11.12;;;;;;;0.35;66.18;96604.91;1718081;83;21029;-79
2022/02/01 01:07:37;;;;;;;25.32;9.15;;;;;;;0.37;66.06;96602.25;1714677;82;21050;-79
2022/02/01 01:10:08;;;;;;;18.82;8.45;;;;;;;0.35;65.92;96597.09;1689356;84;21029;-79
2022/02/01 01:12:42;;;;;;;28.10;8.85;;;;;;;0.34;65.93;96592.73;1689446;84;21031;-80
2022/02/01 01:15:22;;;;;;;28.38;9.83;;;;;;;0.33;66.14;96593.61;1707056;82;21551;-80
2022/02/01 01:44:54;;;;;;;20.70;8.10;;;;;;;0.11;65.26;96600.38;1714430;82;21004;-80
2022/02/01 01:55:43;;;;;;;25.27;8.65;;;;;;;0.07;65.25;96597.38;1727316;82;20980;-80
2022/02/01 01:58:10;;;;;;;26.55;8.20;;;;;;;0.07;65.36;96593.89;1727201;83;21018;-80
2022/02/01 02:03:22;;;;;;;22.02;7.92;;;;;;;0.02;65.71;96600.47;1734846;82;21471;-80
2022/02/01 02:05:50;;;;;;;21.35;7.83;;;;;;;0.02;65.71;96600.47;1727144;82;21054;-80
2022/02/01 02:08:19;;;;;;;21.70;8.10;;;;;;;-0.03;65.73;96604.41;1727277;82;21467;-80
2022/02/01 02:10:59;;;;;;;19.73;8.58;;;;;;;-0.03;66.02;96599.20;1727145;82;20983;-80
2022/02/01 02:18:24;;;;;;;34.80;10.58;;;;;;;-0.06;65.86;96608.79;1744366;82;21128;-81
2022/02/01 02:20:52;;;;;;;33.33;11.38;;;;;;;-0.07;65.92;96607.07;1744430;82;21020;-81
2022/02/01 02:23:20;;;;;;;34.30;14.13;;;;;;;-0.10;65.92;96610.99;1721710;82;20987;-79
2022/02/01 02:25:48;;;;;;;34.35;13.98;;;;;;;-0.12;65.98;96605.83;1719468;83;21150;-79
2022/02/01 02:28:17;;;;;;;38.78;15.90;;;;;;;-0.13;66.15;96610.59;1719619;83;21020;-80
2022/02/01 02:30:48;;;;;;;42.40;17.75;;;;;;;-0.16;66.31;96602.82;1732574;82;20945;-79
2022/02/01 02:33:17;;;;;;;50.50;21.40;;;;;;;-0.12;66.43;96603.65;1744431;82;21020;-80
2022/02/01 02:36:05;;;;;;;44.05;16.67;;;;;;;-0.11;66.37;96603.64;1744503;82;21076;-81
2022/02/01 02:46:25;;;;;;;39.55;15.13;;;;;;;-0.20;66.62;96609.78;1719534;82;21035;-81
2022/02/01 02:48:53;;;;;;;36.40;15.75;;;;;;;-0.19;66.65;96605.44;1735208;82;21060;-81
2022/02/01 02:51:21;;;;;;;31.20;13.38;;;;;;;-0.20;66.79;96613.69;1744762;82;21016;-81
2022/02/01 02:53:48;;;;;;;33.55;11.95;;;;;;;-0.20;66.74;96619.34;1744674;82;21418;-82
2022/02/01 02:56:15;;;;;;;26.17;8.35;;;;;;;-0.17;67.05;96620.17;1744837;82;20993;-82
2022/02/01 02:58:42;;;;;;;24.70;9.55;;;;;;;-0.16;66.86;96615.84;1731354;82;21007;-81
2022/02/01 03:01:10;;;;;;;26.97;9.80;;;;;;;-0.16;66.71;96619.75;1719720;83;21030;-82
2022/02/01 03:03:38;;;;;;;24.40;8.73;;;;;;;-0.14;66.75;96623.19;1719028;82;21435;-81
2022/02/01 03:06:06;;;;;;;23.00;7.95;;;;;;;-0.12;66.67;96621.88;1720080;82;20998;-82
2022/02/01 03:08:35;;;;;;;23.50;8.20;;;;;;;-0.18;66.35;96629.30;1746753;82;21080;-82
2022/02/01 03:11:05;;;;;;;23.10;7.87;;;;;;;-0.18;66.25;96622.78;1746548;82;21008;-82
2022/02/01 03:13:33;;;;;;;25.25;8.35;;;;;;;-0.16;66.34;96617.98;1745107;82;21533;-82
2022/02/01 03:16:12;;;;;;;24.15;8.60;;;;;;;-0.15;66.26;96609.75;1726690;82;20991;-81
2022/02/01 03:21:18;;;;;;;;;;;;;;;-0.14;66.09;96609.74;1722321;82;21038;-80
2022/02/01 03:23:45;;;;;;;24.37;8.43;;;;;;;-0.12;65.97;96626.66;1690956;85;20370;-80
2022/02/01 03:26:11;;;;;;;22.93;8.65;;;;;;;-0.16;65.96;96634.07;1690991;84;22219;-80
2022/02/01 03:28:37;;;;;;;25.70;7.90;;;;;;;-0.19;66.03;96646.69;1690966;84;20985;-80
2022/02/01 03:31:03;;;;;;;23.22;8.68;;;;;;;-0.18;66.02;96645.80;1722328;82;20953;-80
2022/02/01 03:33:30;;;;;;;20.82;8.63;;;;;;;-0.18;66.02;96637.98;1744815;82;21012;-80
2022/02/01 03:35:57;;;;;;;20.62;8.03;;;;;;;-0.20;66.17;96637.58;1744475;82;21080;-80
2022/02/01 03:38:23;;;;;;;24.72;9.23;;;;;;;-0.19;66.12;96635.39;1744831;82;21000;-80
2022/02/01 03:40:49;;;;;;;26.77;8.15;;;;;;;-0.19;66.24;96636.69;1733237;82;21404;-80
2022/02/01 03:43:19;;;;;;;23.38;8.95;;;;;;;-0.23;66.28;96648.00;1719951;82;20999;-82
2022/02/01 03:45:45;;;;;;;27.98;10.60;;;;;;;-0.24;66.25;96644.56;1719765;83;20999;-82
2022/02/01 03:48:13;;;;;;;26.93;11.33;;;;;;;-0.25;66.44;96646.71;1719716;82;21482;-82
2022/02/01 03:50:40;;;;;;;28.52;12.10;;;;;;;-0.32;67.96;96653.73;1728800;82;21473;-82
2022/02/01 03:53:09;;;;;;;33.35;14.70;;;;;;;-0.36;67.90;96650.73;1744329;82;21130;-81
2022/02/01 03:55:37;;;;;;;42.62;15.75;;;;;;;-0.41;67.75;96648.59;1744458;82;21013;-81
2022/02/01 03:58:04;;;;;;;33.28;14.70;;;;;;;-0.40;67.89;96641.20;1744425;82;21008;-81
2022/02/01 04:00:33;;;;;;;41.77;15.75;;;;;;;-0.37;67.85;96647.70;1737034;82;20990;-81
2022/02/01 04:03:03;;;;;;;36.83;14.50;;;;;;;-0.36;67.66;96642.92;1719050;82;21054;-81
2022/02/01 04:05:28;;;;;;;48.80;17.32;;;;;;;-0.34;67.88;96635.94;1717694;83;21459;-80
2022/02/01 04:07:55;;;;;;;33.28;15.83;;;;;;;-0.29;67.73;96639.83;1740616;82;21012;-80
2022/02/01 04:10:21;;;;;;;42.35;17.05;;;;;;;-0.28;67.95;96640.25;1738858;82;21015;-81
2022/02/01 04:12:51;;;;;;;36.48;15.78;;;;;;;-0.29;68.22;96636.77;1719655;82;21022;-81
2022/02/01 04:15:20;;;;;;;34.80;16.05;;;;;;;-0.27;67.79;96639.36;1718922;82;21491;-80
2022/02/01 04:17:48;;;;;;;40.95;16.62;;;;;;;-0.27;68.03;96642.84;1719460;82;21101;-80
2022/02/01 04:20:15;;;;;;;37.28;15.70;;;;;;;-0.28;68.17;96648.06;1738787;82;21040;-80
2022/02/01 04:22:43;;;;;;;37.13;15.60;;;;;;;-0.26;68.29;96641.08;1744606;82;21480;-80
2022/02/01 04:25:10;;;;;;;44.70;15.28;;;;;;;-0.29;68.20;96654.99;1744391;82;21083;-80
2022/02/01 04:27:37;;;;;;;34.25;14.90;;;;;;;-0.30;68.16;96651.97;1744617;82;21074;-80
2022/02/01 04:30:12;;;;;;;34.43;15.68;;;;;;;-0.30;68.66;96656.30;1727291;82;21042;-81
2022/02/01 04:32:46;;;;;;;30.55;15.60;;;;;;;-0.33;69.00;96659.80;1719641;83;21018;-80
2022/02/01 04:35:20;;;;;;;34.23;14.38;;;;;;;-0.34;68.30;96657.23;1719535;83;21003;-80
2022/02/01 04:37:48;;;;;;;35.63;15.05;;;;;;;-0.35;68.23;96660.68;1729904;82;21028;-80
2022/02/01 04:40:17;;;;;;;32.45;14.07;;;;;;;-0.37;68.94;96672.86;1744331;82;21008;-80
2022/02/01 04:42:44;;;;;;;38.78;15.90;;;;;;;-0.40;68.81;96678.50;1744546;82;21059;-81
2022/02/01 04:45:20;;;;;;;31.35;14.50;;;;;;;-0.39;69.02;96680.67;1744329;82;21454;-80
2022/02/01 04:47:49;;;;;;;33.85;14.95;;;;;;;-0.41;69.01;96678.08;1734387;82;21006;-81
2022/02/01 04:50:26;;;;;;;40.75;14.87;;;;;;;-0.41;69.00;96679.38;1719614;83;20980;-81
2022/02/01 04:52:55;;;;;;;33.75;13.62;;;;;;;-0.39;68.70;96688.48;1719406;83;21031;-80
2022/02/01 04:55:29;;;;;;;38.02;14.85;;;;;;;-0.39;69.16;96696.30;1719661;82;21034;-80
2022/02/01 04:57:54;;;;;;;26.90;12.30;;;;;;;-0.41;69.27;96698.05;1730375;82;21430;-80
2022/02/01 05:00:30;;;;;;;30.62;11.95;;;;;;;-0.40;69.42;96695.88;1744230;82;21052;-80
2022/02/01 05:03:00;;;;;;;38.25;13.20;;;;;;;-0.41;69.27;96696.30;1728859;82;20959;-80
2022/02/01 05:05:31;;;;;;;32.08;12.93;;;;;;;-0.38;69.02;96702.38;1717900;83;21025;-80
2022/02/01 05:08:07;;;;;;;30.72;13.38;;;;;;;-0.37;68.94;96702.80;1719376;82;21035;-80
2022/02/01 05:10:34;;;;;;;44.25;13.58;;;;;;;-0.36;68.84;96708.00;1719869;82;21038;-81
2022/02/01 05:15:41;;;;;;;33.92;13.93;;;;;;;-0.31;68.79;96712.73;1724459;82;21025;-81
2022/02/01 05:18:14;;;;;;;37.78;12.15;;;;;;;-0.31;68.75;96714.45;1744459;82;21017;-80
2022/02/01 05:20:47;;;;;;;38.53;13.08;;;;;;;-0.29;68.80;96717.94;1743752;82;21020;-80
2022/02/01 05:23:08;;;;;;;35.60;12.23;;;;;;;-0.30;68.95;96711.85;1725161;82;20997;-80
2022/02/01 05:25:35;;;;;;;32.53;12.75;;;;;;;-0.28;68.97;96711.39;1741004;82;22225;-80
2022/02/01 05:28:03;;;;;;;36.38;12.55;;;;;;;-0.25;69.14;96713.11;1718298;82;21052;-80
2022/02/01 05:30:29;;;;;;;31.65;11.97;;;;;;;-0.25;69.05;96719.61;1712463;83;21095;-80
2022/02/01 05:32:56;;;;;;;39.75;13.65;;;;;;;-0.24;68.92;96725.70;1712558;83;21058;-80
2022/02/01 05:35:23;;;;;;;32.88;13.20;;;;;;;-0.23;68.81;96728.30;1714874;82;20997;-80
2022/02/01 05:37:49;;;;;;;30.72;12.45;;;;;;;-0.22;68.92;96727.84;1728337;82;21064;-80
2022/02/01 05:40:19;;;;;;;33.88;12.63;;;;;;;-0.22;68.81;96734.35;1719222;83;21410;-81
2022/02/01 05:45:21;;;;;;;30.10;11.28;;;;;;;-0.19;68.87;96744.76;1679794;83;21022;-80
2022/02/01 05:47:48;;;;;;;30.88;11.78;;;;;;;-0.21;69.01;96734.34;1719393;82;21144;-80
2022/02/01 05:50:15;;;;;;;38.13;12.07;;;;;;;-0.20;68.88;96746.48;1719498;83;21027;-80
2022/02/01 05:52:41;;;;;;;31.50;12.78;;;;;;;-0.21;69.35;96742.16;1719488;83;21050;-81
2022/02/01 05:55:14;;;;;;;36.15;13.35;;;;;;;-0.21;69.00;96747.83;1719691;82;21040;-81
2022/02/01 05:57:39;;;;;;;33.83;12.03;;;;;;;-0.21;69.20;96759.54;1743715;82;21044;-81
2022/02/01 06:00:08;;;;;;;29.77;12.55;;;;;;;-0.21;69.71;96761.69;1744367;82;21054;-82
2022/02/01 06:02:39;;;;;;;33.25;11.73;;;;;;;-0.22;69.21;96767.78;1732571;82;22195;-82
2022/02/01 06:05:07;;;;;;;30.90;12.20;;;;;;;-0.20;69.28;96764.72;1719370;82;20979;-82
2022/02/01 06:07:33;;;;;;;30.20;11.97;;;;;;;-0.20;69.47;96769.92;1719494;83;21509;-81
2022/02/01 06:10:01;;;;;;;33.23;12.98;;;;;;;-0.19;69.41;96766.47;1719090;83;21039;-81
2022/02/01 06:12:44;;;;;;;31.73;13.18;;;;;;;-0.17;69.36;96767.77;1719583;83;21404;-82
2022/02/01 06:15:12;;;;;;;28.60;13.85;;;;;;;-0.17;69.47;96770.37;1734733;82;20985;-81
2022/02/01 06:17:39;;;;;;;35.88;13.95;;;;;;;-0.16;69.51;96769.03;1744166;82;21026;-80
2022/02/01 06:20:09;;;;;;;39.33;14.40;;;;;;;-0.15;69.76;96776.42;1744444;82;21012;-81
2022/02/01 06:22:37;;;;;;;44.50;13.18;;;;;;;-0.13;69.43;96782.47;1742150;82;20980;-81
2022/02/01 06:25:05;;;;;;;36.38;13.35;;;;;;;-0.12;69.55;96781.62;1719404;83;21062;-80
2022/02/01 06:27:32;;;;;;;33.65;13.08;;;;;;;-0.10;69.41;96785.48;1719534;83;21058;-80
2022/02/01 06:29:59;;;;;;;41.35;13.40;;;;;;;-0.12;69.49;96796.37;1719266;82;21058;-81
2022/02/01 06:32:30;;;;;;;31.68;12.65;;;;;;;-0.09;69.40;96800.27;1719577;82;21022;-80
2022/02/01 06:34:56;;;;;;;36.20;12.60;;;;;;;-0.06;69.24;96813.25;1690724;85;21558;-81
2022/02/01 06:37:23;;;;;;;27.52;11.53;;;;;;;-0.06;69.21;96815.85;1690626;84;21033;-81
2022/02/01 06:39:49;;;;;;;31.12;11.53;;;;;;;-0.04;68.97;96818.88;1690867;85;21035;-81
2022/02/01 06:42:17;;;;;;;32.25;11.60;;;;;;;-0.05;69.09;96823.66;1690725;84;21028;-81
2022/02/01 06:44:43;;;;;;;34.35;11.00;;;;;;;-0.04;69.07;96820.63;1741041;82;20992;-81
2022/02/01 06:47:10;;;;;;;25.45;10.58;;;;;;;-0.02;69.11;96814.54;1744426;82;21063;-81
2022/02/01 06:49:36;;;;;;;28.50;11.12;;;;;;;0.01;68.93;96821.47;1744313;82;21497;-80
2022/02/01 06:52:04;;;;;;;27.85;11.43;;;;;;;0.00;69.10;96824.95;1744415;82;21052;-80
2022/02/01 06:54:30;;;;;;;27.60;10.53;;;;;;;0.03;68.97;96831.88;1723742;82;21031;-80
2022/02/01 06:56:57;;;;;;;27.42;10.65;;;;;;;0.04;68.90;96826.64;1719591;82;21491;-82
2022/02/01 06:59:24;;;;;;;28.05;10.55;;;;;;;0.05;68.84;96823.61;1718400;83;21292;-80
2022/02/01 07:01:54;;;;;;;30.00;9.98;;;;;;;0.08;68.83;96829.66;1703714;83;21167;-80
2022/02/01 07:04:20;;;;;;;30.82;11.10;;;;;;;0.12;68.83;96836.58;1719999;82;21012;-80
2022/02/01 07:06:47;;;;;;;32.38;10.53;;;;;;;0.13;68.73;96840.91;1719619;82;21008;-80
2022/02/01 07:09:15;;;;;;;36.98;12.25;;;;;;;0.18;68.58;96837.41;1719559;83;21009;-80
2022/02/01 07:11:44;;;;;;;36.40;11.38;;;;;;;0.21;68.59;96837.41;1719484;83;21017;-80
2022/02/01 07:14:12;;;;;;;36.23;11.95;;;;;;;0.22;68.58;96838.70;1724659;82;21450;-80
2022/02/01 07:16:38;;;;;;;36.33;12.40;;;;;;;0.24;68.55;96839.54;1724297;82;20957;-80
2022/02/01 07:19:05;;;;;;;35.48;12.98;;;;;;;0.29;68.58;96845.16;1732122;82;20976;-80
2022/02/01 07:21:31;;;;;;;27.30;11.95;;;;;;;0.30;68.58;96838.64;1735505;82;21067;-80
2022/02/01 07:24:00;;;;;;;35.05;13.35;;;;;;;0.34;68.45;96847.30;1732414;82;21400;-80
2022/02/01 07:26:26;;;;;;;32.45;11.95;;;;;;;0.40;68.53;96843.33;1732546;82;21045;-81
2022/02/01 07:28:53;;;;;;;33.73;12.13;;;;;;;0.46;68.41;96843.73;1732683;82;20994;-81
2022/02/01 07:31:19;;;;;;;35.65;11.53;;;;;;;0.49;68.49;96841.96;1735261;82;21474;-81
2022/02/01 07:33:47;;;;;;;35.68;13.10;;;;;;;0.55;68.38;96842.36;1752579;82;21003;-81
2022/02/01 07:36:16;;;;;;;28.35;12.25;;;;;;;0.60;68.41;96840.58;1752842;81;20977;-81
2022/02/01 07:38:42;;;;;;;29.37;11.90;;;;;;;0.62;68.63;96846.63;1752654;81;21460;-81
2022/02/01 07:41:08;;;;;;;33.80;12.58;;;;;;;0.62;68.71;96841.88;1735975;82;20992;-81
2022/02/01 07:43:34;;;;;;;34.88;12.63;;;;;;;0.64;68.39;96837.07;1732534;83;21015;-81
2022/02/01 07:46:09;;;;;;;32.42;12.37;;;;;;;0.68;68.45;96846.15;1732545;82;21406;-80
2022/02/01 07:48:35;;;;;;;31.20;12.50;;;;;;;0.71;68.39;96844.83;1732560;82;20953;-82
2022/02/01 07:51:02;;;;;;;31.97;12.23;;;;;;;0.75;68.64;96847.84;1732655;82;21082;-80
2022/02/01 07:53:29;;;;;;;30.37;12.80;;;;;;;0.75;68.47;96847.38;1752834;82;21031;-80
2022/02/01 07:55:55;;;;;;;32.63;13.05;;;;;;;0.83;68.29;96847.31;1739578;82;21414;-80
2022/02/01 07:58:22;;;;;;;30.15;12.25;;;;;;;0.87;68.20;96851.63;1732521;83;21044;-81
2022/02/01 08:00:48;;;;;;;35.90;12.95;;;;;;;0.94;68.12;96850.25;1744448;82;21078;-81
2022/02/01 08:03:16;;;;;;;31.93;13.83;;;;;;;1.02;67.96;96853.66;1747884;82;21390;-80
2022/02/01 08:05:42;;;;;;;33.78;12.58;;;;;;;1.07;67.83;96851.02;1721952;82;21409;-80
2022/02/01 08:08:09;;;;;;;38.30;13.03;;;;;;;1.12;67.75;96852.69;1752670;82;21086;-80
2022/02/01 08:10:49;;;;;;;32.93;13.50;;;;;;;1.21;67.50;96854.35;1752379;82;21044;-80
2022/02/01 08:18:57;;;;;;;30.48;12.03;;;;;;;1.33;67.09;96854.66;1732602;82;20974;-81
2022/02/01 08:21:27;;;;;;;36.15;12.18;;;;;;;1.39;67.08;96838.92;1731825;82;21059;-80
2022/02/01 08:23:49;;;;;;;27.87;11.73;;;;;;;1.45;66.89;96829.70;1731469;82;21441;-81
2022/02/01 08:26:15;;;;;;;33.88;12.82;;;;;;;1.52;66.59;96834.84;1740680;82;21410;-81
2022/02/01 08:28:42;;;;;;;34.20;12.30;;;;;;;1.57;66.13;96838.26;1752878;82;21000;-81
2022/02/01 08:31:09;;;;;;;35.85;12.85;;;;;;;1.61;66.41;96841.72;1752577;82;21352;-81
2022/02/01 08:33:38;;;;;;;31.30;13.05;;;;;;;1.65;66.04;96839.47;1752955;82;20983;-81
2022/02/01 08:36:05;;;;;;;30.10;12.58;;;;;;;1.71;66.02;96835.03;1752420;82;21052;-81
2022/02/01 08:38:31;;;;;;;29.15;13.45;;;;;;;1.76;66.15;96844.13;1734665;82;20985;-81
2022/02/01 08:40:58;;;;;;;35.52;13.50;;;;;;;1.84;66.05;96847.95;1731438;81;21035;-81
2022/02/01 08:43:25;;;;;;;33.73;14.63;;;;;;;1.89;65.91;96853.97;1732197;83;20989;-80
2022/02/01 08:45:55;;;;;;;42.98;16.07;;;;;;;1.96;65.55;96849.53;1749758;82;20953;-80
2022/02/01 08:48:21;;;;;;;38.42;16.27;;;;;;;2.03;65.21;96852.47;1750098;82;21032;-80
2022/02/01 08:50:48;;;;;;;41.73;16.27;;;;;;;2.07;65.22;96851.55;1732352;83;21018;-79
2022/02/01 08:53:19;;;;;;;39.23;15.95;;;;;;;2.09;64.92;96845.00;1732496;83;21030;-80
2022/02/01 08:56:01;;;;;;;45.00;17.98;;;;;;;2.14;65.03;96848.41;1736603;81;21013;-80
2022/02/01 08:58:19;;;;;;;44.00;17.17;;;;;;;2.21;65.15;96849.19;1708086;82;21075;-79
2022/02/01 09:00:46;;;;;;;52.43;18.00;;;;;;;2.26;64.62;96843.88;1733243;82;20948;-77
2022/02/01 09:03:13;;;;;;;42.93;17.65;;;;;;;2.34;64.54;96840.28;1731312;82;21094;-79
2022/02/01 09:05:45;;;;;;;35.13;16.75;;;;;;;2.41;64.54;96846.25;1736727;82;21013;-77
2022/02/01 09:08:11;;;;;;;41.42;17.60;;;;;;;2.47;64.39;96855.33;1742279;82;21036;-78
2022/02/01 09:10:38;;;;;;;45.98;16.67;;;;;;;2.54;64.21;96843.02;1710808;82;21474;-79
2022/02/01 09:13:04;;;;;;;39.10;15.53;;;;;;;2.59;63.95;96852.97;1714705;83;20933;-80
2022/02/01 09:15:30;;;;;;;43.50;15.10;;;;;;;2.63;63.80;96849.84;1731798;82;21064;-79
2022/02/01 09:17:58;;;;;;;42.50;14.93;;;;;;;2.65;63.39;96854.59;1737241;82;21496;-78
2022/02/01 09:20:26;;;;;;;41.60;14.80;;;;;;;2.74;63.98;96852.30;1743519;82;21577;-76
2022/02/01 09:22:54;;;;;;;34.92;13.25;;;;;;;2.73;62.91;96851.42;1744005;82;21483;-78
2022/02/01 09:25:21;;;;;;;39.48;14.55;;;;;;;2.74;62.60;96852.30;1736520;82;21016;-78
2022/02/01 09:27:49;;;;;;;27.02;13.20;;;;;;;2.76;63.05;96859.66;1743912;82;21080;-79
2022/02/01 09:30:20;;;;;;;34.58;12.63;;;;;;;2.74;61.90;96863.61;1736556;82;20996;-79
2022/02/01 09:32:47;;;;;;;31.57;12.07;;;;;;;2.70;62.22;96861.08;1738842;82;22188;-79
2022/02/01 09:35:15;;;;;;;40.25;15.13;;;;;;;2.70;62.15;96863.23;1719577;82;21407;-80
2022/02/01 09:37:42;;;;;;;31.75;13.85;;;;;;;2.77;62.63;96858.77;1723606;82;21511;-79
2022/02/01 09:40:10;;;;;;;38.80;14.45;;;;;;;2.86;62.85;96856.46;1718457;83;21566;-76
2022/02/01 09:42:43;;;;;;;35.98;13.40;;;;;;;2.95;62.87;96856.27;1718215;83;21430;-77
2022/02/01 09:45:11;;;;;;;32.30;13.93;;;;;;;2.95;61.53;96848.89;1716463;83;21465;-76
2022/02/01 09:47:46;;;;;;;31.07;12.93;;;;;;;3.03;62.37;96849.16;1730331;82;21485;-77
2022/02/01 09:50:16;;;;;;;35.68;13.03;;;;;;;3.15;61.79;96844.14;1724906;82;21020;-77
2022/02/01 09:52:42;;;;;;;33.35;13.62;;;;;;;3.21;62.01;96844.48;1719473;82;21057;-79
2022/02/01 09:55:13;;;;;;;28.17;12.88;;;;;;;3.21;61.75;96850.16;1719128;82;21022;-76
2022/02/01 09:57:43;;;;;;;30.65;11.80;;;;;;;3.10;60.70;96844.67;1719019;82;21081;-76
2022/02/01 10:00:14;;;;;;;26.90;11.33;;;;;;;3.13;61.68;96841.14;1719561;82;21063;-77
2022/02/01 10:02:41;;;;;;;33.42;12.00;;;;;;;3.21;61.73;96841.88;1739173;82;21003;-77
2022/02/01 10:05:12;;;;;;;31.42;12.37;;;;;;;3.27;61.77;96841.75;1735283;82;21073;-77
2022/02/01 10:07:56;;;;;;;24.67;10.43;;;;;;;3.30;61.66;96843.01;1731648;82;21022;-78
2022/02/01 10:10:27;;;;;;;29.10;10.48;;;;;;;3.34;60.95;96841.19;1728866;82;21413;-77
2022/02/01 10:13:18;;;;;;;33.67;11.03;;;;;;;3.37;61.58;96837.64;1719273;82;20989;-78
2022/02/01 10:15:37;;;;;;;28.42;10.85;;;;;;;3.41;61.02;96836.70;1716103;83;21095;-78
2022/02/01 10:18:04;;;;;;;27.65;11.20;;;;;;;3.38;60.51;96830.20;1726062;83;21024;-78
2022/02/01 10:20:42;;;;;;;28.12;9.88;;;;;;;3.35;60.26;96836.79;1731668;82;21382;-76
2022/02/01 10:23:27;;;;;;;30.43;10.53;;;;;;;3.33;60.82;96837.28;1732409;82;20969;-76
2022/02/01 10:26:19;;;;;;;26.65;10.45;;;;;;;3.29;61.04;96837.33;1731808;82;21020;-77
2022/02/01 10:31:52;;;;;;;32.78;10.30;;;;;;;3.30;60.58;96834.27;1732790;82;21441;-78
2022/02/01 10:37:20;;;;;;;22.52;7.55;;;;;;;3.33;60.68;96822.44;1735044;81;21033;-76
2022/02/01 10:39:50;;;;;;;21.33;7.12;;;;;;;3.39;61.04;96824.94;1732293;82;21018;-76
2022/02/01 10:42:17;;;;;;;16.65;6.12;;;;;;;3.48;60.42;96826.97;1747604;82;21020;-77
2022/02/01 10:44:50;;;;;;;15.90;6.90;;;;;;;3.50;59.38;96819.49;1751863;82;21020;-77
2022/02/01 10:47:42;;;;;;;21.15;5.97;;;;;;;3.58;60.69;96828.50;1735118;82;21019;-76
2022/02/01 10:50:15;;;;;;;13.00;5.70;;;;;;;3.69;60.60;96825.64;1733636;81;21034;-76
2022/02/01 10:52:48;;;;;;;15.72;6.28;;;;;;;3.77;58.55;96826.78;1732352;82;21017;-76
2022/02/01 10:55:17;;;;;;;22.42;8.20;;;;;;;3.74;58.74;96827.70;1733532;82;21025;-77
2022/02/01 10:57:46;;;;;;;22.45;7.70;;;;;;;3.59;57.98;96820.17;1731969;82;21450;-76
2022/02/01 11:00:16;;;;;;;20.08;6.78;;;;;;;3.55;59.00;96832.48;1732736;82;21069;-76
2022/02/01 11:02:46;;;;;;;17.90;5.20;;;;;;;3.60;59.65;96825.82;1745490;82;21461;-76
2022/02/01 11:05:17;;;;;;;13.55;4.08;;;;;;;3.65;59.73;96826.62;1696682;84;21008;-78
2022/02/01 11:07:51;;;;;;;14.40;4.83;;;;;;;3.74;59.90;96821.63;1679889;85;21032;-78
2022/02/01 11:10:17;;;;;;;17.65;4.53;;;;;;;3.79;59.56;96827.16;1685146;85;21034;-76
2022/02/01 11:12:44;;;;;;;13.40;4.15;;;;;;;3.84;59.59;96819.22;1691439;84;20964;-76
2022/02/01 11:15:23;;;;;;;17.42;5.97;;;;;;;3.88;59.13;96818.70;1694087;84;21056;-77
2022/02/01 11:17:52;;;;;;;17.85;5.72;;;;;;;3.86;58.79;96810.02;1688874;84;21024;-77
2022/02/01 11:20:28;;;;;;;19.70;5.00;;;;;;;3.85;59.12;96803.06;1679306;85;21025;-76
2022/02/01 11:23:05;;;;;;;13.65;3.85;;;;;;;3.82;59.17;96804.83;1683730;85;21000;-77
2022/02/01 11:25:47;;;;;;;11.12;3.17;;;;;;;3.87;59.22;96805.19;1685964;84;21059;-77
2022/02/01 11:31:16;;;;;;;14.90;3.70;;;;;;;3.93;58.52;96811.16;1679618;84;21417;-76
2022/02/01 11:33:47;;;;;;;11.45;3.60;;;;;;;3.93;58.56;96808.53;1678873;85;21016;-75
2022/02/01 11:36:14;;;;;;;12.58;3.67;;;;;;;3.93;58.57;96812.91;1653677;85;21064;-75
2022/02/01 11:38:58;;;;;;;10.80;3.60;;;;;;;3.89;57.40;96817.36;1679081;85;20988;-76
2022/02/01 11:41:38;;;;;;;19.90;4.58;;;;;;;3.84;57.67;96817.91;1679298;85;21036;-76
2022/02/01 11:44:15;;;;;;;18.60;5.58;;;;;;;3.76;57.95;96819.39;1681600;85;21000;-76
2022/02/01 11:47:21;;;;;;;21.80;6.78;;;;;;;3.73;58.41;96822.06;1685788;84;21041;-76
2022/02/01 11:49:58;;;;;;;19.23;7.90;;;;;;;3.67;58.98;96819.58;1681895;84;21040;-76
2022/02/01 11:52:27;;;;;;;24.75;7.92;;;;;;;3.63;59.34;96820.53;1677136;84;21080;-76
2022/02/01 11:55:04;;;;;;;17.77;7.83;;;;;;;3.58;59.50;96822.39;1671377;85;20973;-77
2022/02/01 11:57:32;;;;;;;29.60;9.30;;;;;;;3.54;59.74;96820.28;1673796;85;21037;-77
2022/02/01 12:00:03;;;;;;;26.73;9.83;;;;;;;3.52;59.75;96824.67;1674205;85;21029;-77
2022/02/01 12:02:39;;;;;;;30.68;10.23;;;;;;;3.40;60.12;96827.09;1669782;85;21522;-77
2022/02/01 12:05:14;;;;;;;22.67;9.10;;;;;;;3.29;60.59;96829.47;1672459;85;20997;-78
2022/02/01 12:07:49;;;;;;;31.42;9.53;;;;;;;3.24;60.36;96826.08;1672223;85;21060;-79
2022/02/01 12:10:20;;;;;;;31.17;10.18;;;;;;;3.15;60.88;96820.58;1671284;85;21053;-78
2022/02/01 12:12:47;;;;;;;26.52;9.83;;;;;;;3.10;61.03;96822.86;1673583;85;21407;-78
2022/02/01 12:15:14;;;;;;;26.93;10.38;;;;;;;3.03;61.07;96827.34;1673256;85;20986;-78
2022/02/01 12:17:46;;;;;;;24.98;10.38;;;;;;;3.01;61.00;96827.83;1668020;84;21139;-79
2022/02/01 12:20:16;;;;;;;23.65;9.33;;;;;;;2.97;61.23;96832.70;1664652;86;21092;-79
2022/02/01 12:22:57;;;;;;;30.88;10.20;;;;;;;2.90;61.53;96832.81;1664810;86;21533;-79
2022/02/01 12:25:25;;;;;;;27.27;11.22;;;;;;;2.89;61.50;96839.38;1673878;85;21036;-78
2022/02/01 12:27:52;;;;;;;28.60;11.57;;;;;;;2.79;61.50;96846.97;1719143;82;21078;-78
2022/02/01 12:30:19;;;;;;;22.95;10.38;;;;;;;2.72;61.66;96836.62;1719313;83;21404;-79
2022/02/01 12:32:52;;;;;;;28.15;11.05;;;;;;;2.67;61.74;96850.22;1719208;82;21018;-78
2022/02/01 12:35:36;;;;;;;27.20;11.43;;;;;;;2.62;62.55;96843.73;1718873;83;20983;-79
2022/02/01 12:38:12;;;;;;;30.40;11.90;;;;;;;2.61;62.25;96848.56;1690282;84;21040;-79
2022/02/01 12:40:38;;;;;;;26.45;11.20;;;;;;;2.57;62.57;96850.80;1695286;83;21078;-78
2022/02/01 12:43:15;;;;;;;26.85;10.75;;;;;;;2.47;62.66;96850.53;1717410;83;21086;-77
2022/02/01 12:45:52;;;;;;;28.35;10.88;;;;;;;2.36;62.73;96855.48;1716329;83;21022;-78
2022/02/01 12:48:12;;;;;;;25.88;10.32;;;;;;;2.34;62.78;96860.32;1716509;83;21072;-77
2022/02/01 12:50:39;;;;;;;32.00;11.70;;;;;;;2.28;63.21;96859.95;1719091;83;20965;-75
2022/02/01 12:53:05;;;;;;;34.05;10.88;;;;;;;2.27;63.08;96861.28;1717941;83;21482;-77
2022/02/01 12:55:32;;;;;;;27.75;11.15;;;;;;;2.24;63.45;96864.38;1717704;83;21028;-78
2022/02/01 12:58:04;;;;;;;28.42;10.63;;;;;;;2.23;63.63;96874.84;1719056;83;20957;-77
2022/02/01 13:00:33;;;;;;;27.62;10.60;;;;;;;2.16;63.48;96881.06;1699547;83;21056;-77
2022/02/01 13:03:02;;;;;;;34.55;12.35;;;;;;;2.11;63.65;96878.06;1718324;82;21550;-76
2022/02/01 13:05:30;;;;;;;32.13;12.10;;;;;;;2.09;64.44;96878.55;1717934;83;21446;-77